Accueil
METAR-TAF:

METAR-TAF

Aéroports :

Augusta, Maine, États-Unis

latitude: 44-19-14N, longitude: 069-47-50W, altitude: 107 m

Observation

Le bulletin a été fait il y a 25 minutes, à 18:53 UTC
Vent 5 kt de direction variable
Température 24°C
Humidité 69%
Pression 1015 hPa
Visibilité: 16.1 km
Nuages épars à une hauteur de 1900 ft

METAR: KAUG 151853Z AUTO VRB05KT 10SM SCT019 24/18 A2996 RMK AO2 SLP145 T02390183

Heure: 15:18 (19:18 UTC)

Prévision

Le bulletin a été fait il y a 1 heure et 21 minutes, à 17:57 UTC
Prévision valable du 15 à 18 UTC au 16 à 18 UTC
Vent 6 kt de sud/sud-est
Visibilité: 10 km
Ciel couvert à une hauteur de 1500 ft
A partir de 16 à 0500 UTC
Vent 2 kt de sud
Visibilité: 0.4 km
à une hauteur de 100 ft
brouillard
A partir de 16 à 1500 UTC
Vent 4 kt de sud
Visibilité: 10 km
Nuages fragmentés à une hauteur de 1500 ft

TAF: KAUG 151757Z 1518/1618 16006KT P6SM OVC015 FM160500 18002KT 1/4SM FG VV001 FM161500 17004KT P6SM BKN015

Observations et prévisions météorologiques de plus de 4000 aéroports (messages METAR et TAF).

Les stations disponibles sont représentées par des disques jaunes et rouges sur la carte.

Passer la souris dessus pour voir le nom de la station.

Cliquer dessus pour voir les observations et prévisions météorologiques.

Pour changer de carte: cliquez sur les boutons verts avec une croix noire pour zoomer, sur le bouton vert avec un tiret pour effectuer un zoom arrière, ou sur les flèches vertes pour les cartes adjacentes.


METAR-TAF: